sensor_id;sensor_type;location;lat;lon;timestamp;temperature;humidity
2008;DHT22;47741;52.306;8.904;2022-08-25T00:01:51;22.70;78.60
2008;DHT22;47741;52.306;8.904;2022-08-25T00:04:44;22.70;78.60
2008;DHT22;47741;52.306;8.904;2022-08-25T00:07:30;22.70;79.00
2008;DHT22;47741;52.306;8.904;2022-08-25T00:10:16;22.60;79.60
2008;DHT22;47741;52.306;8.904;2022-08-25T00:13:03;22.50;80.00
2008;DHT22;47741;52.306;8.904;2022-08-25T00:15:52;22.50;80.10
2008;DHT22;47741;52.306;8.904;2022-08-25T00:18:39;22.30;80.20
2008;DHT22;47741;52.306;8.904;2022-08-25T00:21:26;22.40;80.80
2008;DHT22;47741;52.306;8.904;2022-08-25T00:24:13;22.30;81.20
2008;DHT22;47741;52.306;8.904;2022-08-25T00:27:01;22.20;81.10
2008;DHT22;47741;52.306;8.904;2022-08-25T00:29:47;22.20;81.60
2008;DHT22;47741;52.306;8.904;2022-08-25T00:32:35;22.20;82.00
2008;DHT22;47741;52.306;8.904;2022-08-25T00:35:21;22.20;82.10
2008;DHT22;47741;52.306;8.904;2022-08-25T00:38:08;22.10;82.50
2008;DHT22;47741;52.306;8.904;2022-08-25T00:40:57;22.10;82.60
2008;DHT22;47741;52.306;8.904;2022-08-25T00:43:59;22.10;82.60
2008;DHT22;47741;52.306;8.904;2022-08-25T00:46:50;22.00;83.00
2008;DHT22;47741;52.306;8.904;2022-08-25T00:49:42;22.00;83.30
2008;DHT22;47741;52.306;8.904;2022-08-25T00:52:33;22.00;83.60
2008;DHT22;47741;52.306;8.904;2022-08-25T00:55:24;21.90;83.60
2008;DHT22;47741;52.306;8.904;2022-08-25T00:58:17;22.00;84.00
2008;DHT22;47741;52.306;8.904;2022-08-25T01:01:05;21.90;84.10
2008;DHT22;47741;52.306;8.904;2022-08-25T01:03:53;21.80;84.50
2008;DHT22;47741;52.306;8.904;2022-08-25T01:06:40;21.70;85.10
2008;DHT22;47741;52.306;8.904;2022-08-25T01:09:29;21.80;85.50
2008;DHT22;47741;52.306;8.904;2022-08-25T01:12:17;21.80;85.60
2008;DHT22;47741;52.306;8.904;2022-08-25T01:15:03;21.70;85.60
2008;DHT22;47741;52.306;8.904;2022-08-25T01:17:52;21.70;86.10
2008;DHT22;47741;52.306;8.904;2022-08-25T01:20:39;21.70;86.30
2008;DHT22;47741;52.306;8.904;2022-08-25T01:23:25;21.70;86.40
2008;DHT22;47741;52.306;8.904;2022-08-25T01:26:13;21.70;86.60
2008;DHT22;47741;52.306;8.904;2022-08-25T01:29:06;21.60;87.00
2008;DHT22;47741;52.306;8.904;2022-08-25T01:32:11;21.50;87.60
2008;DHT22;47741;52.306;8.904;2022-08-25T01:35:00;21.50;88.00
2008;DHT22;47741;52.306;8.904;2022-08-25T01:37:46;21.40;88.10
2008;DHT22;47741;52.306;8.904;2022-08-25T01:40:33;21.40;88.90
2008;DHT22;47741;52.306;8.904;2022-08-25T01:43:30;21.30;89.00
2008;DHT22;47741;52.306;8.904;2022-08-25T01:46:24;21.30;89.30
2008;DHT22;47741;52.306;8.904;2022-08-25T01:49:10;21.30;89.30
2008;DHT22;47741;52.306;8.904;2022-08-25T01:51:59;21.40;89.60
2008;DHT22;47741;52.306;8.904;2022-08-25T01:54:48;21.50;89.40
2008;DHT22;47741;52.306;8.904;2022-08-25T01:57:34;21.40;90.00
2008;DHT22;47741;52.306;8.904;2022-08-25T02:00:20;21.30;90.10
2008;DHT22;47741;52.306;8.904;2022-08-25T02:03:07;21.30;90.20
2008;DHT22;47741;52.306;8.904;2022-08-25T02:05:55;21.20;90.30
2008;DHT22;47741;52.306;8.904;2022-08-25T02:08:48;21.40;90.30
2008;DHT22;47741;52.306;8.904;2022-08-25T02:11:36;21.40;90.20
2008;DHT22;47741;52.306;8.904;2022-08-25T02:14:23;21.30;90.20
2008;DHT22;47741;52.306;8.904;2022-08-25T02:17:13;21.30;90.80
2008;DHT22;47741;52.306;8.904;2022-08-25T02:20:03;21.40;90.50
2008;DHT22;47741;52.306;8.904;2022-08-25T02:22:50;21.20;90.70
2008;DHT22;47741;52.306;8.904;2022-08-25T02:25:37;21.10;91.00
2008;DHT22;47741;52.306;8.904;2022-08-25T02:28:24;21.00;91.20
2008;DHT22;47741;52.306;8.904;2022-08-25T02:31:11;21.10;91.40
2008;DHT22;47741;52.306;8.904;2022-08-25T02:33:57;21.20;91.30
2008;DHT22;47741;52.306;8.904;2022-08-25T02:36:44;21.00;91.60
2008;DHT22;47741;52.306;8.904;2022-08-25T02:39:30;21.00;91.90
2008;DHT22;47741;52.306;8.904;2022-08-25T02:42:18;20.90;92.20
2008;DHT22;47741;52.306;8.904;2022-08-25T02:45:06;20.90;92.30
2008;DHT22;47741;52.306;8.904;2022-08-25T02:47:53;20.90;92.30
2008;DHT22;47741;52.306;8.904;2022-08-25T02:50:39;20.90;92.40
2008;DHT22;47741;52.306;8.904;2022-08-25T02:53:26;21.00;92.40
2008;DHT22;47741;52.306;8.904;2022-08-25T02:56:15;20.80;92.60
2008;DHT22;47741;52.306;8.904;2022-08-25T02:59:02;20.80;93.00
2008;DHT22;47741;52.306;8.904;2022-08-25T03:01:48;20.70;93.40
2008;DHT22;47741;52.306;8.904;2022-08-25T03:04:34;20.70;93.50
2008;DHT22;47741;52.306;8.904;2022-08-25T03:07:21;20.60;93.70
2008;DHT22;47741;52.306;8.904;2022-08-25T03:10:11;20.60;93.90
2008;DHT22;47741;52.306;8.904;2022-08-25T03:13:01;20.50;94.80
2008;DHT22;47741;52.306;8.904;2022-08-25T03:15:47;20.50;95.20
2008;DHT22;47741;52.306;8.904;2022-08-25T03:18:33;20.40;95.70
2008;DHT22;47741;52.306;8.904;2022-08-25T03:21:19;20.30;96.10
2008;DHT22;47741;52.306;8.904;2022-08-25T03:24:05;20.30;96.60
2008;DHT22;47741;52.306;8.904;2022-08-25T03:26:52;20.80;96.30
2008;DHT22;47741;52.306;8.904;2022-08-25T03:29:39;20.90;96.60
2008;DHT22;47741;52.306;8.904;2022-08-25T03:32:27;20.60;97.00
2008;DHT22;47741;52.306;8.904;2022-08-25T03:35:15;20.30;97.50
2008;DHT22;47741;52.306;8.904;2022-08-25T03:38:01;20.30;98.20
2008;DHT22;47741;52.306;8.904;2022-08-25T03:40:48;20.30;98.60
2008;DHT22;47741;52.306;8.904;2022-08-25T03:43:34;20.20;99.00
2008;DHT22;47741;52.306;8.904;2022-08-25T03:46:24;20.10;99.30
2008;DHT22;47741;52.306;8.904;2022-08-25T03:49:15;20.20;99.60
2008;DHT22;47741;52.306;8.904;2022-08-25T03:52:02;20.20;99.80
2008;DHT22;47741;52.306;8.904;2022-08-25T03:54:51;20.10;99.90
2008;DHT22;47741;52.306;8.904;2022-08-25T03:57:37;20.10;99.90
2008;DHT22;47741;52.306;8.904;2022-08-25T04:00:23;20.10;99.90
2008;DHT22;47741;52.306;8.904;2022-08-25T04:03:11;20.10;99.90
2008;DHT22;47741;52.306;8.904;2022-08-25T04:06:01;20.00;99.90
2008;DHT22;47741;52.306;8.904;2022-08-25T04:08:48;20.00;99.90
2008;DHT22;47741;52.306;8.904;2022-08-25T04:11:37;19.90;99.90
2008;DHT22;47741;52.306;8.904;2022-08-25T04:14:23;20.00;99.90
2008;DHT22;47741;52.306;8.904;2022-08-25T04:17:11;19.90;99.90
2008;DHT22;47741;52.306;8.904;2022-08-25T04:20:00;19.90;99.90
2008;DHT22;47741;52.306;8.904;2022-08-25T04:22:46;19.80;99.90
2008;DHT22;47741;52.306;8.904;2022-08-25T04:25:32;19.80;99.90
2008;DHT22;47741;52.306;8.904;2022-08-25T04:28:23;19.80;99.90
2008;DHT22;47741;52.306;8.904;2022-08-25T04:31:10;19.70;99.90
2008;DHT22;47741;52.306;8.904;2022-08-25T04:34:02;19.80;99.90
2008;DHT22;47741;52.306;8.904;2022-08-25T04:36:49;19.90;99.90
2008;DHT22;47741;52.306;8.904;2022-08-25T04:39:35;19.80;99.90
2008;DHT22;47741;52.306;8.904;2022-08-25T04:42:21;20.00;99.90
2008;DHT22;47741;52.306;8.904;2022-08-25T04:45:07;19.80;99.90
2008;DHT22;47741;52.306;8.904;2022-08-25T04:47:56;19.90;99.90
2008;DHT22;47741;52.306;8.904;2022-08-25T04:50:45;19.80;99.90
2008;DHT22;47741;52.306;8.904;2022-08-25T04:53:32;19.90;99.90
2008;DHT22;47741;52.306;8.904;2022-08-25T04:56:22;20.00;99.90
2008;DHT22;47741;52.306;8.904;2022-08-25T04:59:12;20.00;99.90
2008;DHT22;47741;52.306;8.904;2022-08-25T05:01:59;20.10;99.90
2008;DHT22;47741;52.306;8.904;2022-08-25T05:04:50;20.30;99.90
2008;DHT22;47741;52.306;8.904;2022-08-25T05:07:36;20.30;99.90
2008;DHT22;47741;52.306;8.904;2022-08-25T05:10:22;20.40;99.90
2008;DHT22;47741;52.306;8.904;2022-08-25T05:13:11;21.00;99.90
2008;DHT22;47741;52.306;8.904;2022-08-25T05:15:58;20.30;99.90
2008;DHT22;47741;52.306;8.904;2022-08-25T05:18:44;20.50;99.90
2008;DHT22;47741;52.306;8.904;2022-08-25T05:21:30;20.60;99.90
2008;DHT22;47741;52.306;8.904;2022-08-25T05:24:17;20.50;99.90
2008;DHT22;47741;52.306;8.904;2022-08-25T05:27:04;20.60;99.90
2008;DHT22;47741;52.306;8.904;2022-08-25T05:29:51;20.50;99.90
2008;DHT22;47741;52.306;8.904;2022-08-25T05:32:37;20.60;99.90
2008;DHT22;47741;52.306;8.904;2022-08-25T05:35:23;20.70;99.90
2008;DHT22;47741;52.306;8.904;2022-08-25T05:38:09;20.50;99.90
2008;DHT22;47741;52.306;8.904;2022-08-25T05:40:59;20.70;99.90
2008;DHT22;47741;52.306;8.904;2022-08-25T05:43:47;20.90;99.90
2008;DHT22;47741;52.306;8.904;2022-08-25T05:46:34;21.10;99.90
2008;DHT22;47741;52.306;8.904;2022-08-25T05:49:23;21.00;99.90
2008;DHT22;47741;52.306;8.904;2022-08-25T05:52:12;21.10;99.90
2008;DHT22;47741;52.306;8.904;2022-08-25T05:54:58;21.40;99.90
2008;DHT22;47741;52.306;8.904;2022-08-25T05:57:46;21.30;99.90
2008;DHT22;47741;52.306;8.904;2022-08-25T06:00:32;21.30;99.90
2008;DHT22;47741;52.306;8.904;2022-08-25T06:03:18;21.50;99.90
2008;DHT22;47741;52.306;8.904;2022-08-25T06:06:05;21.70;99.90
2008;DHT22;47741;52.306;8.904;2022-08-25T06:08:52;21.80;99.90
2008;DHT22;47741;52.306;8.904;2022-08-25T06:11:38;21.70;99.90
2008;DHT22;47741;52.306;8.904;2022-08-25T06:14:27;22.00;99.90
2008;DHT22;47741;52.306;8.904;2022-08-25T06:17:13;22.20;99.90
2008;DHT22;47741;52.306;8.904;2022-08-25T06:20:00;22.20;99.90
2008;DHT22;47741;52.306;8.904;2022-08-25T06:22:52;22.20;99.90
2008;DHT22;47741;52.306;8.904;2022-08-25T06:25:39;22.40;99.90
2008;DHT22;47741;52.306;8.904;2022-08-25T06:28:25;22.60;99.90
2008;DHT22;47741;52.306;8.904;2022-08-25T06:31:11;22.80;99.90
2008;DHT22;47741;52.306;8.904;2022-08-25T06:33:57;22.80;99.90
2008;DHT22;47741;52.306;8.904;2022-08-25T06:36:43;22.70;99.90
2008;DHT22;47741;52.306;8.904;2022-08-25T06:39:29;23.00;99.90
2008;DHT22;47741;52.306;8.904;2022-08-25T06:42:18;23.10;99.90
2008;DHT22;47741;52.306;8.904;2022-08-25T06:45:04;23.50;99.90
2008;DHT22;47741;52.306;8.904;2022-08-25T06:47:55;23.60;99.90
2008;DHT22;47741;52.306;8.904;2022-08-25T06:50:42;23.60;99.90
2008;DHT22;47741;52.306;8.904;2022-08-25T06:53:31;23.70;99.90
2008;DHT22;47741;52.306;8.904;2022-08-25T06:56:20;23.80;99.90
2008;DHT22;47741;52.306;8.904;2022-08-25T06:59:07;23.80;99.90
2008;DHT22;47741;52.306;8.904;2022-08-25T07:01:53;24.10;99.90
2008;DHT22;47741;52.306;8.904;2022-08-25T07:04:42;24.10;99.90
2008;DHT22;47741;52.306;8.904;2022-08-25T07:07:28;24.10;99.90
2008;DHT22;47741;52.306;8.904;2022-08-25T07:10:16;24.20;99.90
2008;DHT22;47741;52.306;8.904;2022-08-25T07:13:02;24.30;99.90
2008;DHT22;47741;52.306;8.904;2022-08-25T07:15:52;24.40;99.90
2008;DHT22;47741;52.306;8.904;2022-08-25T07:18:38;24.70;99.90
2008;DHT22;47741;52.306;8.904;2022-08-25T07:21:25;24.80;99.90
2008;DHT22;47741;52.306;8.904;2022-08-25T07:24:12;25.10;99.90
2008;DHT22;47741;52.306;8.904;2022-08-25T07:27:01;25.20;99.90
2008;DHT22;47741;52.306;8.904;2022-08-25T07:29:47;25.30;99.90
2008;DHT22;47741;52.306;8.904;2022-08-25T07:32:34;25.50;99.80
2008;DHT22;47741;52.306;8.904;2022-08-25T07:35:21;25.50;99.90
2008;DHT22;47741;52.306;8.904;2022-08-25T07:38:12;25.40;99.90
2008;DHT22;47741;52.306;8.904;2022-08-25T07:41:01;25.60;99.50
2008;DHT22;47741;52.306;8.904;2022-08-25T07:43:48;25.80;99.30
2008;DHT22;47741;52.306;8.904;2022-08-25T07:46:34;26.10;99.10
2008;DHT22;47741;52.306;8.904;2022-08-25T07:49:20;26.30;98.80
2008;DHT22;47741;52.306;8.904;2022-08-25T07:52:07;26.80;98.70
2008;DHT22;47741;52.306;8.904;2022-08-25T07:54:53;26.50;98.80
2008;DHT22;47741;52.306;8.904;2022-08-25T07:57:40;26.60;98.80
2008;DHT22;47741;52.306;8.904;2022-08-25T08:00:26;26.60;98.60
2008;DHT22;47741;52.306;8.904;2022-08-25T08:03:17;26.60;98.40
2008;DHT22;47741;52.306;8.904;2022-08-25T08:06:08;26.70;98.50
2008;DHT22;47741;52.306;8.904;2022-08-25T08:08:55;26.90;98.20
2008;DHT22;47741;52.306;8.904;2022-08-25T08:11:41;27.10;98.10
2008;DHT22;47741;52.306;8.904;2022-08-25T08:14:30;27.00;98.00
2008;DHT22;47741;52.306;8.904;2022-08-25T08:17:16;27.40;97.60
2008;DHT22;47741;52.306;8.904;2022-08-25T08:20:02;27.60;97.10
2008;DHT22;47741;52.306;8.904;2022-08-25T08:22:52;27.60;97.20
2008;DHT22;47741;52.306;8.904;2022-08-25T08:25:38;27.70;97.00
2008;DHT22;47741;52.306;8.904;2022-08-25T08:28:24;27.80;97.00
2008;DHT22;47741;52.306;8.904;2022-08-25T08:31:12;27.80;96.90
2008;DHT22;47741;52.306;8.904;2022-08-25T08:33:58;28.20;96.70
2008;DHT22;47741;52.306;8.904;2022-08-25T08:36:44;28.20;96.90
2008;DHT22;47741;52.306;8.904;2022-08-25T08:39:30;28.30;96.60
2008;DHT22;47741;52.306;8.904;2022-08-25T08:51:15;28.80;96.10
2008;DHT22;47741;52.306;8.904;2022-08-25T08:57:17;28.90;95.60
2008;DHT22;47741;52.306;8.904;2022-08-25T09:00:05;28.90;95.30
2008;DHT22;47741;52.306;8.904;2022-08-25T09:05:59;29.00;95.00
2008;DHT22;47741;52.306;8.904;2022-08-25T09:08:45;29.10;95.10
2008;DHT22;47741;52.306;8.904;2022-08-25T09:11:45;29.20;95.00
2008;DHT22;47741;52.306;8.904;2022-08-25T09:17:44;29.50;94.10
2008;DHT22;47741;52.306;8.904;2022-08-25T09:21:02;29.90;93.70
2008;DHT22;47741;52.306;8.904;2022-08-25T09:24:06;30.00;93.10
2008;DHT22;47741;52.306;8.904;2022-08-25T09:27:17;29.80;93.00
2008;DHT22;47741;52.306;8.904;2022-08-25T09:30:15;29.80;92.90
2008;DHT22;47741;52.306;8.904;2022-08-25T09:33:03;29.70;92.90
2008;DHT22;47741;52.306;8.904;2022-08-25T09:35:51;29.40;93.10
2008;DHT22;47741;52.306;8.904;2022-08-25T09:38:41;29.70;93.10
2008;DHT22;47741;52.306;8.904;2022-08-25T09:44:46;30.10;92.90
2008;DHT22;47741;52.306;8.904;2022-08-25T09:47:33;30.30;92.40
2008;DHT22;47741;52.306;8.904;2022-08-25T09:50:30;30.80;92.00
2008;DHT22;47741;52.306;8.904;2022-08-25T09:53:20;31.00;91.40
2008;DHT22;47741;52.306;8.904;2022-08-25T09:56:06;31.30;91.20
2008;DHT22;47741;52.306;8.904;2022-08-25T09:58:55;31.50;90.40
2008;DHT22;47741;52.306;8.904;2022-08-25T10:02:03;31.50;90.40
2008;DHT22;47741;52.306;8.904;2022-08-25T10:05:19;31.70;90.00
2008;DHT22;47741;52.306;8.904;2022-08-25T10:08:11;31.60;90.00
2008;DHT22;47741;52.306;8.904;2022-08-25T10:10:59;31.60;89.90
2008;DHT22;47741;52.306;8.904;2022-08-25T10:13:47;31.80;88.90
2008;DHT22;47741;52.306;8.904;2022-08-25T10:16:37;32.00;87.80
2008;DHT22;47741;52.306;8.904;2022-08-25T10:19:25;31.80;87.00
2008;DHT22;47741;52.306;8.904;2022-08-25T10:22:21;31.30;88.10
2008;DHT22;47741;52.306;8.904;2022-08-25T10:25:19;31.20;88.40
2008;DHT22;47741;52.306;8.904;2022-08-25T10:28:11;31.10;88.40
2008;DHT22;47741;52.306;8.904;2022-08-25T10:31:18;31.10;89.30
2008;DHT22;47741;52.306;8.904;2022-08-25T10:34:24;31.40;89.00
2008;DHT22;47741;52.306;8.904;2022-08-25T10:46:50;31.20;87.50
2008;DHT22;47741;52.306;8.904;2022-08-25T10:49:46;31.60;86.50
2008;DHT22;47741;52.306;8.904;2022-08-25T11:05:09;32.70;83.50
2008;DHT22;47741;52.306;8.904;2022-08-25T11:08:01;32.80;82.60
2008;DHT22;47741;52.306;8.904;2022-08-25T11:10:57;32.60;82.70
2008;DHT22;47741;52.306;8.904;2022-08-25T11:13:56;32.30;82.20
2008;DHT22;47741;52.306;8.904;2022-08-25T11:19:47;32.20;82.80
2008;DHT22;47741;52.306;8.904;2022-08-25T11:22:41;32.50;81.80
2008;DHT22;47741;52.306;8.904;2022-08-25T11:25:34;32.40;81.50
2008;DHT22;47741;52.306;8.904;2022-08-25T11:28:30;32.50;81.20
2008;DHT22;47741;52.306;8.904;2022-08-25T11:31:21;32.90;80.30
2008;DHT22;47741;52.306;8.904;2022-08-25T11:34:09;33.30;79.80
2008;DHT22;47741;52.306;8.904;2022-08-25T11:37:00;33.60;79.60
2008;DHT22;47741;52.306;8.904;2022-08-25T11:46:14;34.10;76.90
2008;DHT22;47741;52.306;8.904;2022-08-25T12:04:40;34.10;76.80
2008;DHT22;47741;52.306;8.904;2022-08-25T12:07:28;33.90;76.20
2008;DHT22;47741;52.306;8.904;2022-08-25T12:13:45;34.20;76.80
2008;DHT22;47741;52.306;8.904;2022-08-25T12:25:27;34.40;77.10
2008;DHT22;47741;52.306;8.904;2022-08-25T12:28:22;34.30;77.90
2008;DHT22;47741;52.306;8.904;2022-08-25T12:31:29;34.70;77.30
2008;DHT22;47741;52.306;8.904;2022-08-25T12:37:52;34.80;76.40
2008;DHT22;47741;52.306;8.904;2022-08-25T12:43:31;35.10;76.30
2008;DHT22;47741;52.306;8.904;2022-08-25T12:49:30;34.90;75.00
2008;DHT22;47741;52.306;8.904;2022-08-25T12:52:22;34.70;73.60
2008;DHT22;47741;52.306;8.904;2022-08-25T12:55:10;35.00;74.00
2008;DHT22;47741;52.306;8.904;2022-08-25T12:57:57;35.20;74.00
2008;DHT22;47741;52.306;8.904;2022-08-25T13:07:29;35.60;73.10
2008;DHT22;47741;52.306;8.904;2022-08-25T13:16:30;35.40;72.10
2008;DHT22;47741;52.306;8.904;2022-08-25T13:19:18;35.60;72.40
2008;DHT22;47741;52.306;8.904;2022-08-25T13:22:14;35.50;71.30
2008;DHT22;47741;52.306;8.904;2022-08-25T13:25:02;35.30;71.80
2008;DHT22;47741;52.306;8.904;2022-08-25T13:27:50;35.20;71.90
2008;DHT22;47741;52.306;8.904;2022-08-25T13:30:40;35.10;73.10
2008;DHT22;47741;52.306;8.904;2022-08-25T13:33:26;35.20;72.20
2008;DHT22;47741;52.306;8.904;2022-08-25T13:36:14;35.10;72.10
2008;DHT22;47741;52.306;8.904;2022-08-25T13:39:22;35.30;71.60
2008;DHT22;47741;52.306;8.904;2022-08-25T13:42:12;35.30;71.50
2008;DHT22;47741;52.306;8.904;2022-08-25T13:44:59;35.20;72.10
2008;DHT22;47741;52.306;8.904;2022-08-25T13:47:46;35.30;73.30
2008;DHT22;47741;52.306;8.904;2022-08-25T13:50:34;35.60;72.60
2008;DHT22;47741;52.306;8.904;2022-08-25T13:53:22;35.80;71.90
2008;DHT22;47741;52.306;8.904;2022-08-25T13:56:10;36.00;71.20
2008;DHT22;47741;52.306;8.904;2022-08-25T13:58:56;36.00;71.00
2008;DHT22;47741;52.306;8.904;2022-08-25T14:01:46;36.00;71.20
2008;DHT22;47741;52.306;8.904;2022-08-25T14:07:28;36.60;70.40
2008;DHT22;47741;52.306;8.904;2022-08-25T14:13:29;37.30;68.70
2008;DHT22;47741;52.306;8.904;2022-08-25T14:16:20;36.90;69.50
2008;DHT22;47741;52.306;8.904;2022-08-25T14:19:11;36.40;70.30
2008;DHT22;47741;52.306;8.904;2022-08-25T14:22:00;36.60;70.40
2008;DHT22;47741;52.306;8.904;2022-08-25T14:24:46;37.80;67.70
2008;DHT22;47741;52.306;8.904;2022-08-25T14:27:33;38.70;66.30
2008;DHT22;47741;52.306;8.904;2022-08-25T14:30:19;40.30;63.40
2008;DHT22;47741;52.306;8.904;2022-08-25T14:33:05;41.90;59.20
2008;DHT22;47741;52.306;8.904;2022-08-25T14:35:54;42.60;56.80
2008;DHT22;47741;52.306;8.904;2022-08-25T14:38:42;41.90;56.60
2008;DHT22;47741;52.306;8.904;2022-08-25T14:41:28;40.30;57.70
2008;DHT22;47741;52.306;8.904;2022-08-25T14:44:14;39.20;59.40
2008;DHT22;47741;52.306;8.904;2022-08-25T14:47:01;40.00;58.70
2008;DHT22;47741;52.306;8.904;2022-08-25T14:49:51;41.40;57.20
2008;DHT22;47741;52.306;8.904;2022-08-25T14:52:37;42.70;55.40
2008;DHT22;47741;52.306;8.904;2022-08-25T14:55:23;43.70;54.30
2008;DHT22;47741;52.306;8.904;2022-08-25T14:58:09;44.50;53.80
2008;DHT22;47741;52.306;8.904;2022-08-25T15:00:55;44.20;53.40
2008;DHT22;47741;52.306;8.904;2022-08-25T15:03:42;44.10;53.40
2008;DHT22;47741;52.306;8.904;2022-08-25T15:06:30;43.90;53.30
2008;DHT22;47741;52.306;8.904;2022-08-25T15:09:21;43.20;54.10
2008;DHT22;47741;52.306;8.904;2022-08-25T15:12:07;42.60;54.10
2008;DHT22;47741;52.306;8.904;2022-08-25T15:14:53;41.50;54.90
2008;DHT22;47741;52.306;8.904;2022-08-25T15:17:40;40.90;54.80
2008;DHT22;47741;52.306;8.904;2022-08-25T15:20:26;40.40;55.90
2008;DHT22;47741;52.306;8.904;2022-08-25T15:23:12;39.50;56.80
2008;DHT22;47741;52.306;8.904;2022-08-25T15:25:59;38.90;57.60
2008;DHT22;47741;52.306;8.904;2022-08-25T15:28:46;38.20;58.20
2008;DHT22;47741;52.306;8.904;2022-08-25T15:31:33;38.40;58.20
2008;DHT22;47741;52.306;8.904;2022-08-25T15:34:19;38.90;57.70
2008;DHT22;47741;52.306;8.904;2022-08-25T15:37:13;38.60;57.50
2008;DHT22;47741;52.306;8.904;2022-08-25T15:40:00;38.00;58.20
2008;DHT22;47741;52.306;8.904;2022-08-25T15:42:47;37.70;58.50
2008;DHT22;47741;52.306;8.904;2022-08-25T15:45:35;37.60;59.00
2008;DHT22;47741;52.306;8.904;2022-08-25T15:48:22;38.50;58.70
2008;DHT22;47741;52.306;8.904;2022-08-25T15:51:10;39.10;58.10
2008;DHT22;47741;52.306;8.904;2022-08-25T15:53:57;40.30;57.00
2008;DHT22;47741;52.306;8.904;2022-08-25T15:56:43;41.90;55.60
2008;DHT22;47741;52.306;8.904;2022-08-25T15:59:34;43.00;54.30
2008;DHT22;47741;52.306;8.904;2022-08-25T16:02:20;42.80;54.00
2008;DHT22;47741;52.306;8.904;2022-08-25T16:05:07;42.40;54.60
2008;DHT22;47741;52.306;8.904;2022-08-25T16:07:54;42.60;53.90
2008;DHT22;47741;52.306;8.904;2022-08-25T16:10:41;42.70;54.20
2008;DHT22;47741;52.306;8.904;2022-08-25T16:13:28;42.90;53.80
2008;DHT22;47741;52.306;8.904;2022-08-25T16:16:14;43.40;53.10
2008;DHT22;47741;52.306;8.904;2022-08-25T16:19:01;43.70;52.80
2008;DHT22;47741;52.306;8.904;2022-08-25T16:21:49;43.00;53.30
2008;DHT22;47741;52.306;8.904;2022-08-25T16:24:37;42.90;53.60
2008;DHT22;47741;52.306;8.904;2022-08-25T16:27:25;43.20;53.30
2008;DHT22;47741;52.306;8.904;2022-08-25T16:30:12;43.20;53.10
2008;DHT22;47741;52.306;8.904;2022-08-25T16:32:58;42.70;53.30
2008;DHT22;47741;52.306;8.904;2022-08-25T16:35:47;42.10;54.10
2008;DHT22;47741;52.306;8.904;2022-08-25T16:38:33;40.60;54.80
2008;DHT22;47741;52.306;8.904;2022-08-25T16:41:26;39.70;56.00
2008;DHT22;47741;52.306;8.904;2022-08-25T16:44:18;39.20;56.70
2008;DHT22;47741;52.306;8.904;2022-08-25T16:47:05;39.30;56.40
2008;DHT22;47741;52.306;8.904;2022-08-25T16:49:54;39.30;56.30
2008;DHT22;47741;52.306;8.904;2022-08-25T16:52:41;38.80;56.60
2008;DHT22;47741;52.306;8.904;2022-08-25T16:55:48;38.40;57.10
2008;DHT22;47741;52.306;8.904;2022-08-25T16:58:36;39.20;56.50
2008;DHT22;47741;52.306;8.904;2022-08-25T17:01:23;39.40;56.10
2008;DHT22;47741;52.306;8.904;2022-08-25T17:04:12;39.10;56.50
2008;DHT22;47741;52.306;8.904;2022-08-25T17:06:58;38.10;57.50
2008;DHT22;47741;52.306;8.904;2022-08-25T17:09:44;37.70;58.10
2008;DHT22;47741;52.306;8.904;2022-08-25T17:12:30;37.90;58.10
2008;DHT22;47741;52.306;8.904;2022-08-25T17:15:16;37.80;58.30
2008;DHT22;47741;52.306;8.904;2022-08-25T17:18:07;37.20;58.60
2008;DHT22;47741;52.306;8.904;2022-08-25T17:20:57;36.70;59.00
2008;DHT22;47741;52.306;8.904;2022-08-25T17:23:47;36.30;59.70
2008;DHT22;47741;52.306;8.904;2022-08-25T17:26:35;36.10;59.90
2008;DHT22;47741;52.306;8.904;2022-08-25T17:29:22;36.00;60.70
2008;DHT22;47741;52.306;8.904;2022-08-25T17:32:08;35.90;61.10
2008;DHT22;47741;52.306;8.904;2022-08-25T17:34:54;36.40;60.70
2008;DHT22;47741;52.306;8.904;2022-08-25T17:37:40;36.30;60.70
2008;DHT22;47741;52.306;8.904;2022-08-25T17:40:26;36.00;61.00
2008;DHT22;47741;52.306;8.904;2022-08-25T17:43:28;35.50;61.80
2008;DHT22;47741;52.306;8.904;2022-08-25T17:46:15;35.00;62.70
2008;DHT22;47741;52.306;8.904;2022-08-25T17:49:02;34.50;63.70
2008;DHT22;47741;52.306;8.904;2022-08-25T17:51:48;34.00;65.50
2008;DHT22;47741;52.306;8.904;2022-08-25T17:54:34;33.60;66.00
2008;DHT22;47741;52.306;8.904;2022-08-25T17:57:21;33.30;67.20
2008;DHT22;47741;52.306;8.904;2022-08-25T18:00:07;32.90;67.80
2008;DHT22;47741;52.306;8.904;2022-08-25T18:02:57;32.70;68.20
2008;DHT22;47741;52.306;8.904;2022-08-25T18:05:48;32.60;68.80
2008;DHT22;47741;52.306;8.904;2022-08-25T18:08:35;32.30;69.60
2008;DHT22;47741;52.306;8.904;2022-08-25T18:11:21;32.10;70.20
2008;DHT22;47741;52.306;8.904;2022-08-25T18:14:09;31.70;71.10
2008;DHT22;47741;52.306;8.904;2022-08-25T18:16:58;31.60;72.00
2008;DHT22;47741;52.306;8.904;2022-08-25T18:19:46;31.20;73.00
2008;DHT22;47741;52.306;8.904;2022-08-25T18:22:35;31.10;73.50
2008;DHT22;47741;52.306;8.904;2022-08-25T18:25:26;31.00;73.60
2008;DHT22;47741;52.306;8.904;2022-08-25T18:28:12;30.70;74.20
2008;DHT22;47741;52.306;8.904;2022-08-25T18:31:04;30.40;75.00
2008;DHT22;47741;52.306;8.904;2022-08-25T18:33:50;30.60;75.20
2008;DHT22;47741;52.306;8.904;2022-08-25T18:36:37;30.10;76.30
2008;DHT22;47741;52.306;8.904;2022-08-25T18:39:23;29.90;76.90
2008;DHT22;47741;52.306;8.904;2022-08-25T18:42:27;30.00;77.30
2008;DHT22;47741;52.306;8.904;2022-08-25T18:45:16;29.80;77.60
2008;DHT22;47741;52.306;8.904;2022-08-25T18:48:02;29.60;78.30
2008;DHT22;47741;52.306;8.904;2022-08-25T18:50:50;29.60;78.50
2008;DHT22;47741;52.306;8.904;2022-08-25T18:53:38;29.50;78.80
2008;DHT22;47741;52.306;8.904;2022-08-25T18:56:26;29.40;79.30
2008;DHT22;47741;52.306;8.904;2022-08-25T18:59:18;29.20;79.80
2008;DHT22;47741;52.306;8.904;2022-08-25T19:02:04;29.10;80.40
2008;DHT22;47741;52.306;8.904;2022-08-25T19:04:51;28.90;80.80
2008;DHT22;47741;52.306;8.904;2022-08-25T19:07:37;28.80;81.40
2008;DHT22;47741;52.306;8.904;2022-08-25T19:10:24;28.70;81.90
2008;DHT22;47741;52.306;8.904;2022-08-25T19:13:11;28.50;82.40
2008;DHT22;47741;52.306;8.904;2022-08-25T19:16:07;28.60;82.60
2008;DHT22;47741;52.306;8.904;2022-08-25T19:19:16;28.50;82.80
2008;DHT22;47741;52.306;8.904;2022-08-25T19:22:02;28.40;83.60
2008;DHT22;47741;52.306;8.904;2022-08-25T19:24:51;28.40;83.80
2008;DHT22;47741;52.306;8.904;2022-08-25T19:27:37;28.30;84.00
2008;DHT22;47741;52.306;8.904;2022-08-25T19:30:26;28.30;83.90
2008;DHT22;47741;52.306;8.904;2022-08-25T19:33:13;28.30;84.00
2008;DHT22;47741;52.306;8.904;2022-08-25T19:36:03;28.20;84.40
2008;DHT22;47741;52.306;8.904;2022-08-25T19:38:52;28.20;84.70
2008;DHT22;47741;52.306;8.904;2022-08-25T19:41:42;28.10;85.00
2008;DHT22;47741;52.306;8.904;2022-08-25T19:44:29;27.90;85.50
2008;DHT22;47741;52.306;8.904;2022-08-25T19:47:15;27.90;86.00
2008;DHT22;47741;52.306;8.904;2022-08-25T19:50:03;27.80;86.10
2008;DHT22;47741;52.306;8.904;2022-08-25T19:52:53;27.70;86.40